Airfield :
LOGIN :

Register | Disclaimer

   EN    FR    IT 

 










Legend :    VFR   Marginal VFR   IFR   Intensive IFR   Very Intensive IFR
Visi :
Ceiling :
>= 8 km
>= 3000ft
5 to 8 km
1000 to 3000 ft
1500m to 5 km
500 to 1000 ft
800 to 1500m
200 to 500 ft
< 800m
< 200 ft
Symbols :   Thunderstorms  Fog  Heavy snow  Heavy precipitations  Wind > 20 kt
SIGMETs :     Misc.  Thunderstorms  Icing  Turbulence  Mountain Waves  Volcanic Ashes







- Airport Elevation : 598 ft
- IATA code : BQH
- Download approach charts


EGKB - Biggin Hill

CURRENT METAR :
  • 181320Z 21013KT 180V250 9999 SCT025 20/14 Q1011

EXPIRED METARs :
  • 181250Z 22010KT 190V250 9999 SCT030 19/13 Q1011
  • 181220Z 21016KT 190V250 9999 SCT030 19/13 Q1011
  • 181150Z 22015G26KT 190V270 9999 SCT030 19/13 Q1010
  • 181120Z 22016G27KT 190V250 9999 SCT030 19/12 Q1010
  • 181050Z 22018G28KT 9999 SCT026 19/12 Q1010

TAF TAF EGKB
Valid from the 18 at 12:00 until the 18 at 21:00 UTC


181100Z 1812/1821 21014KT 9999 SCT025
TEMPO 1812/1817 22017G27KT
No reported NOTAMs for that airfield.
2 SIGMETs reported for the London FIR (EGTT) :
 
Severe turbulence
EGTT SIGMET 06 VALID 181000/181400 EGRR
EGTT LONDON FIR SEV TURB FCST WI N5500 E00300 - N5301 E00313 - N5255 W00026 - N5426 W00139 - N5500 W00051 - N5500 E00300 SFC/FL060 MOV NE 15KT WKN=
Severe mountain waves
EGTT SIGMET 05 VALID 181000/181400 EGRR
EGTT LONDON FIR SEV MTW FCST WI N5500 E00325 - N5221 E00156 - N5039 W00347 - N5209 W00411 - N5500 W00430 - N5500 E00325 FL020/280 STNR NC=



MET'MAP, your aeronautical weather chart ! - Copyright ORBIFLY December 2007 - Disclaimer

ORBIFLY MET'MAP TEAM :

Programming & Development : Alexandra Zaïnal
Concept & Development : Baudouin d'Aumeries
Co-Development & Prog : Marc-Olivier Méhu
Technical & hardware support : Manuel Goepfert

Contact : metmap@orbifly.com




SOURCES & CREDITS :

   NOAA